Terminal Aerodrome Forecast
Issued by NWS Twin Cities, MN

Home | Current Version | Previous Version | Text Only | Print | Product List | Glossary Off
Versions: 1 2 3 4 5 6 7 8 9 10 11 12 13 14 15 16

000
FTUS43 KMPX 181400 AAA
TAFEAU
TAF AMD
KEAU 181406Z 1814/1912 10005KT 3SM BR OVC002
     FM181630 14006KT P6SM BKN020
     FM181900 15008KT P6SM SCT035=

USA.gov is the U.S. government's official web portal to all federal, state and local government web resources and services.